Time;durP1;ratioP1;P1;durP2;ratioP2;P2;SDS_P1;SDS_P2;PMS_P1;PMS_P2;Temp;Humidity;BMP_temperature;BMP_pressure;BME280_temperature;BME280_humidity;BME280_pressure;Samples;Min_cycle;Max_cycle;Signal;HPM_P1;HPM_P2
2021/06/28 00:00:54;;;;;;;10.60;6.43;;;;;;;;;;5072241;28;20811;-85
2021/06/28 00:03:19;;;;;;;9.20;6.28;;;;;;;;;;5070706;28;20020;-85
2021/06/28 00:05:46;;;;;;;12.85;6.78;;;;;;;;;;5070520;28;20017;-85
2021/06/28 00:08:11;;;;;;;17.88;9.60;;;;;;;;;;5070728;28;20040;-85
2021/06/28 00:10:36;;;;;;;15.65;8.65;;;;;;;;;;5071981;28;20040;-85
2021/06/28 00:13:01;;;;;;;20.65;8.27;;;;;;;;;;5070889;28;20023;-85
2021/06/28 00:15:28;;;;;;;11.00;7.50;;;;;;;;;;5070624;28;20017;-85
2021/06/28 00:17:54;;;;;;;9.35;7.13;;;;;;;;;;5061828;28;20042;-86
2021/06/28 00:20:19;;;;;;;11.00;7.35;;;;;;;;;;5070978;28;20527;-85
2021/06/28 00:22:45;;;;;;;13.98;7.53;;;;;;;;;;5059244;28;20094;-85
2021/06/28 00:25:12;;;;;;;17.17;7.50;;;;;;;;;;5075786;28;20483;-85
2021/06/28 00:27:37;;;;;;;11.43;7.65;;;;;;;;;;5074059;28;20443;-86
2021/06/28 00:30:07;;;;;;;14.77;7.30;;;;;;;;;;5071243;28;20048;-85
2021/06/28 00:32:32;;;;;;;9.65;7.07;;;;;;;;;;5074115;28;20024;-85
2021/06/28 00:34:57;;;;;;;12.48;7.55;;;;;;;;;;5075416;28;20349;-87
2021/06/28 00:37:22;;;;;;;10.05;7.88;;;;;;;;;;5074199;28;20028;-85
2021/06/28 00:39:47;;;;;;;14.40;8.43;;;;;;;;;;5073939;28;20027;-85
2021/06/28 00:42:13;;;;;;;12.10;7.20;;;;;;;;;;5073862;28;20468;-85
2021/06/28 00:44:38;;;;;;;12.25;7.53;;;;;;;;;;5059535;28;20094;-84
2021/06/28 00:47:03;;;;;;;12.40;8.35;;;;;;;;;;5073743;28;20020;-86
2021/06/28 00:49:28;;;;;;;15.20;7.72;;;;;;;;;;5059893;28;20025;-86
2021/06/28 00:51:55;;;;;;;10.27;7.57;;;;;;;;;;5073714;28;20016;-86
2021/06/28 00:54:21;;;;;;;10.32;7.75;;;;;;;;;;5073898;28;20016;-86
2021/06/28 00:56:46;;;;;;;19.10;8.30;;;;;;;;;;5073403;28;20034;-86
2021/06/28 00:59:12;;;;;;;23.17;10.40;;;;;;;;;;5073866;28;20024;-87
2021/06/28 01:01:37;;;;;;;12.30;8.20;;;;;;;;;;5074790;28;20051;-86
2021/06/28 01:04:03;;;;;;;11.73;8.15;;;;;;;;;;5073765;28;20050;-86
2021/06/28 01:06:28;;;;;;;12.20;8.20;;;;;;;;;;5073402;28;20119;-86
2021/06/28 01:08:53;;;;;;;12.45;8.40;;;;;;;;;;5073103;28;20446;-85
2021/06/28 01:11:18;;;;;;;13.45;7.97;;;;;;;;;;5065697;28;20032;-86
2021/06/28 01:13:44;;;;;;;9.90;8.02;;;;;;;;;;5067754;28;20024;-86
2021/06/28 01:16:09;;;;;;;15.02;7.90;;;;;;;;;;5073295;28;20016;-86
2021/06/28 01:18:35;;;;;;;9.65;7.25;;;;;;;;;;5073411;28;20089;-86
2021/06/28 01:21:01;;;;;;;17.83;7.07;;;;;;;;;;5073076;28;20017;-86
2021/06/28 01:23:35;;;;;;;11.73;7.32;;;;;;;;;;5073201;28;20031;-86
2021/06/28 01:26:02;;;;;;;14.57;7.85;;;;;;;;;;5072759;28;20027;-86
2021/06/28 01:28:28;;;;;;;11.85;7.82;;;;;;;;;;5073382;28;20484;-86
2021/06/28 01:30:54;;;;;;;13.52;8.75;;;;;;;;;;5073079;28;20060;-86
2021/06/28 01:33:19;;;;;;;15.68;9.57;;;;;;;;;;5068773;28;20024;-86
2021/06/28 01:35:45;;;;;;;13.60;9.18;;;;;;;;;;5073041;28;20537;-86
2021/06/28 01:38:10;;;;;;;16.90;10.07;;;;;;;;;;5072831;28;20012;-86
2021/06/28 01:40:36;;;;;;;14.30;9.77;;;;;;;;;;5071507;28;20033;-86
2021/06/28 01:43:02;;;;;;;19.60;10.07;;;;;;;;;;5057814;28;20054;-87
2021/06/28 01:45:28;;;;;;;19.85;8.98;;;;;;;;;;5072722;28;20047;-86
2021/06/28 01:47:54;;;;;;;16.35;9.55;;;;;;;;;;5072869;28;20025;-86
2021/06/28 01:50:22;;;;;;;13.52;9.35;;;;;;;;;;5072915;28;20111;-86
2021/06/28 01:52:48;;;;;;;11.63;8.55;;;;;;;;;;5072702;28;20027;-86
2021/06/28 01:55:14;;;;;;;11.45;8.02;;;;;;;;;;5072425;28;20016;-86
2021/06/28 01:57:43;;;;;;;11.32;7.85;;;;;;;;;;5068548;28;20119;-86
2021/06/28 02:00:09;;;;;;;11.38;7.63;;;;;;;;;;5072774;28;20039;-87
2021/06/28 02:02:34;;;;;;;12.57;7.90;;;;;;;;;;5072538;28;20025;-86
2021/06/28 02:04:59;;;;;;;13.40;7.45;;;;;;;;;;5068509;28;20020;-87
2021/06/28 02:07:24;;;;;;;17.00;7.95;;;;;;;;;;5072230;28;20384;-86
2021/06/28 02:09:50;;;;;;;11.30;7.88;;;;;;;;;;5073287;28;20106;-87
2021/06/28 02:12:16;;;;;;;15.25;7.38;;;;;;;;;;5060117;28;20052;-86
2021/06/28 02:14:41;;;;;;;10.35;7.88;;;;;;;;;;5072459;28;20074;-87
2021/06/28 02:17:06;;;;;;;12.68;8.35;;;;;;;;;;5066204;28;20013;-87
2021/06/28 02:19:31;;;;;;;14.32;7.45;;;;;;;;;;5072225;28;20032;-87
2021/06/28 02:21:56;;;;;;;8.27;7.07;;;;;;;;;;5070988;28;20107;-86
2021/06/28 02:24:22;;;;;;;11.98;7.20;;;;;;;;;;5071562;28;20023;-86
2021/06/28 02:26:47;;;;;;;14.57;7.97;;;;;;;;;;5063457;28;20021;-87
2021/06/28 02:29:13;;;;;;;11.80;8.00;;;;;;;;;;5071936;28;20082;-87
2021/06/28 02:31:38;;;;;;;17.50;7.80;;;;;;;;;;5071620;28;20108;-87
2021/06/28 02:34:04;;;;;;;10.90;7.55;;;;;;;;;;5071845;28;20016;-87
2021/06/28 02:36:29;;;;;;;19.58;7.03;;;;;;;;;;5057454;28;20044;-86
2021/06/28 02:38:55;;;;;;;8.98;7.28;;;;;;;;;;5071864;28;20024;-87
2021/06/28 02:41:20;;;;;;;12.43;7.20;;;;;;;;;;5071602;28;20021;-87
2021/06/28 02:43:46;;;;;;;12.20;7.50;;;;;;;;;;5071749;28;20028;-86
2021/06/28 02:46:12;;;;;;;20.90;8.27;;;;;;;;;;5072697;28;20027;-87
2021/06/28 02:48:37;;;;;;;12.10;7.55;;;;;;;;;;5055482;28;20054;-87
2021/06/28 02:51:04;;;;;;;17.70;7.68;;;;;;;;;;5070487;28;20154;-87
2021/06/28 02:53:29;;;;;;;31.23;7.90;;;;;;;;;;5069864;28;20024;-87
2021/06/28 02:55:54;;;;;;;63.38;10.48;;;;;;;;;;5069783;28;20017;-87
2021/06/28 02:58:20;;;;;;;67.70;9.73;;;;;;;;;;5055572;28;20531;-86
2021/06/28 03:00:46;;;;;;;83.30;10.18;;;;;;;;;;5069544;28;20111;-87
2021/06/28 03:03:11;;;;;;;30.45;8.18;;;;;;;;;;5070984;28;20467;-87
2021/06/28 03:05:37;;;;;;;24.08;8.43;;;;;;;;;;5069795;28;20013;-87
2021/06/28 03:08:05;;;;;;;18.20;7.82;;;;;;;;;;5069697;28;20124;-87
2021/06/28 03:10:31;;;;;;;24.02;8.82;;;;;;;;;;5069435;28;20023;-87
2021/06/28 03:12:56;;;;;;;29.42;8.98;;;;;;;;;;5063159;28;20012;-88
2021/06/28 03:15:22;;;;;;;24.80;8.82;;;;;;;;;;5069964;28;20468;-87
2021/06/28 03:17:47;;;;;;;27.33;8.88;;;;;;;;;;5067723;28;20146;-87
2021/06/28 03:20:13;;;;;;;46.10;9.60;;;;;;;;;;5071120;28;20115;-87
2021/06/28 03:22:39;;;;;;;33.47;9.65;;;;;;;;;;5070989;28;20028;-88
2021/06/28 03:25:06;;;;;;;21.92;10.05;;;;;;;;;;5072808;28;20035;-87
2021/06/28 03:27:31;;;;;;;32.03;10.50;;;;;;;;;;5071250;28;20099;-87
2021/06/28 03:29:56;;;;;;;20.88;10.30;;;;;;;;;;5071319;28;20756;-87
2021/06/28 03:32:21;;;;;;;20.00;9.73;;;;;;;;;;5066308;28;20062;-88
2021/06/28 03:34:47;;;;;;;13.15;9.50;;;;;;;;;;5071388;28;20043;-87
2021/06/28 03:37:12;;;;;;;12.02;9.80;;;;;;;;;;5071306;28;20104;-87
2021/06/28 03:39:37;;;;;;;16.02;10.15;;;;;;;;;;5071144;28;20103;-87
2021/06/28 03:42:03;;;;;;;15.40;10.45;;;;;;;;;;5071207;28;20021;-87
2021/06/28 03:44:28;;;;;;;16.02;11.35;;;;;;;;;;5071052;28;20032;-87
2021/06/28 03:46:53;;;;;;;24.70;11.68;;;;;;;;;;5065425;28;20020;-87
2021/06/28 03:49:18;;;;;;;17.50;10.50;;;;;;;;;;5064246;28;20166;-87
2021/06/28 03:51:44;;;;;;;17.70;11.23;;;;;;;;;;5070249;28;20016;-88
2021/06/28 03:54:09;;;;;;;16.50;11.57;;;;;;;;;;5051162;28;20638;-87
2021/06/28 03:56:34;;;;;;;16.73;11.13;;;;;;;;;;5068451;28;20028;-87
2021/06/28 03:58:59;;;;;;;19.17;10.35;;;;;;;;;;5076161;28;20021;-87
2021/06/28 04:01:24;;;;;;;22.25;12.18;;;;;;;;;;5074551;28;20394;-87
2021/06/28 04:03:51;;;;;;;19.08;12.57;;;;;;;;;;5075132;28;20013;-87
2021/06/28 04:06:16;;;;;;;23.98;12.57;;;;;;;;;;5075945;28;20020;-87
2021/06/28 04:08:42;;;;;;;25.38;11.55;;;;;;;;;;5074200;28;20456;-87
2021/06/28 04:11:07;;;;;;;18.88;11.20;;;;;;;;;;5074586;28;20024;-87
2021/06/28 04:13:33;;;;;;;18.98;10.73;;;;;;;;;;5071528;28;20017;-87
2021/06/28 04:15:58;;;;;;;16.15;10.13;;;;;;;;;;5058985;28;20036;-86
2021/06/28 04:18:23;;;;;;;19.08;10.80;;;;;;;;;;5068979;28;20162;-86
2021/06/28 04:20:49;;;;;;;21.55;10.95;;;;;;;;;;5074681;28;20017;-86
2021/06/28 04:23:14;;;;;;;17.08;10.68;;;;;;;;;;5074146;28;20027;-87
2021/06/28 04:25:40;;;;;;;19.45;11.63;;;;;;;;;;5074494;28;20013;-86
2021/06/28 04:28:05;;;;;;;25.27;10.38;;;;;;;;;;5074430;28;20530;-87
2021/06/28 04:30:30;;;;;;;19.05;10.25;;;;;;;;;;5074234;28;20107;-87
2021/06/28 04:32:56;;;;;;;24.10;11.85;;;;;;;;;;5074412;28;20019;-87
2021/06/28 04:35:26;;;;;;;27.67;10.70;;;;;;;;;;5068216;28;20021;-87
2021/06/28 04:37:51;;;;;;;29.17;13.80;;;;;;;;;;5074099;28;20103;-87
2021/06/28 04:40:18;;;;;;;31.13;13.90;;;;;;;;;;5074101;28;20051;-86
2021/06/28 04:42:43;;;;;;;40.55;14.77;;;;;;;;;;5059778;28;20021;-87
2021/06/28 04:45:10;;;;;;;39.35;15.05;;;;;;;;;;5073838;28;20081;-87
2021/06/28 04:47:35;;;;;;;31.17;16.02;;;;;;;;;;5074028;28;20111;-86
2021/06/28 04:50:03;;;;;;;38.90;16.17;;;;;;;;;;5059570;28;20103;-87
2021/06/28 04:52:29;;;;;;;38.58;16.38;;;;;;;;;;5058215;28;20017;-87
2021/06/28 04:54:54;;;;;;;45.47;17.52;;;;;;;;;;5066705;28;20017;-88
2021/06/28 04:57:19;;;;;;;46.75;16.33;;;;;;;;;;5054140;28;20029;-87
2021/06/28 04:59:45;;;;;;;56.25;16.98;;;;;;;;;;5060694;28;20023;-87
2021/06/28 05:02:10;;;;;;;45.28;17.27;;;;;;;;;;5057727;28;20545;-85
2021/06/28 05:04:35;;;;;;;39.97;18.75;;;;;;;;;;5055806;28;20082;-85
2021/06/28 05:07:00;;;;;;;38.40;16.95;;;;;;;;;;5057037;28;20118;-87
2021/06/28 05:09:26;;;;;;;33.35;17.15;;;;;;;;;;5053829;28;20103;-86
2021/06/28 05:11:51;;;;;;;32.17;18.70;;;;;;;;;;5054302;28;20017;-86
2021/06/28 05:14:16;;;;;;;36.85;18.90;;;;;;;;;;5053691;28;20017;-86
2021/06/28 05:16:41;;;;;;;32.33;19.48;;;;;;;;;;5053767;28;20036;-86
2021/06/28 05:19:06;;;;;;;34.03;19.95;;;;;;;;;;5060886;28;20023;-86
2021/06/28 05:21:32;;;;;;;31.38;19.52;;;;;;;;;;5073297;28;20028;-85
2021/06/28 05:23:57;;;;;;;32.53;19.40;;;;;;;;;;5071374;28;20025;-86
2021/06/28 05:26:22;;;;;;;36.22;20.88;;;;;;;;;;5070512;28;20035;-86
2021/06/28 05:28:47;;;;;;;35.53;22.05;;;;;;;;;;5056216;28;20021;-86
2021/06/28 05:31:12;;;;;;;34.17;22.00;;;;;;;;;;5060146;28;20054;-86
2021/06/28 05:33:38;;;;;;;36.47;22.63;;;;;;;;;;5063368;28;20040;-85
2021/06/28 05:36:03;;;;;;;37.42;23.67;;;;;;;;;;5066294;28;20346;-86
2021/06/28 05:38:28;;;;;;;39.20;24.88;;;;;;;;;;5064788;28;20039;-85
2021/06/28 05:40:53;;;;;;;38.13;24.05;;;;;;;;;;5057602;28;20159;-84
2021/06/28 05:43:19;;;;;;;37.72;23.15;;;;;;;;;;5061620;28;20021;-85
2021/06/28 05:45:44;;;;;;;41.45;23.40;;;;;;;;;;5052934;28;20025;-85
2021/06/28 05:48:09;;;;;;;40.38;24.08;;;;;;;;;;5054856;28;20530;-84
2021/06/28 05:50:34;;;;;;;35.70;21.52;;;;;;;;;;5051416;28;20017;-85
2021/06/28 05:53:02;;;;;;;41.17;25.08;;;;;;;;;;5056290;28;20024;-84
2021/06/28 05:55:27;;;;;;;42.30;25.58;;;;;;;;;;5060091;28;20131;-84
2021/06/28 05:57:52;;;;;;;44.90;25.80;;;;;;;;;;5072704;28;20048;-84
2021/06/28 06:00:18;;;;;;;49.78;27.25;;;;;;;;;;5072273;28;20092;-84
2021/06/28 06:02:43;;;;;;;46.13;25.13;;;;;;;;;;5072386;28;20024;-84
2021/06/28 06:05:08;;;;;;;51.67;27.00;;;;;;;;;;5072311;28;20020;-85
2021/06/28 06:07:35;;;;;;;42.70;24.60;;;;;;;;;;5069341;28;20024;-84
2021/06/28 06:10:00;;;;;;;46.03;26.50;;;;;;;;;;5057346;28;20025;-84
2021/06/28 06:12:25;;;;;;;42.88;26.55;;;;;;;;;;5072556;28;20024;-84
2021/06/28 06:14:51;;;;;;;50.45;27.40;;;;;;;;;;5072441;28;20040;-84
2021/06/28 06:17:16;;;;;;;49.97;28.00;;;;;;;;;;5072068;28;20031;-84
2021/06/28 06:19:41;;;;;;;46.50;26.38;;;;;;;;;;5067622;28;20024;-84
2021/06/28 06:22:07;;;;;;;41.78;23.92;;;;;;;;;;5071950;28;20467;-84
2021/06/28 06:24:32;;;;;;;49.92;26.45;;;;;;;;;;5072152;28;20102;-84
2021/06/28 06:26:57;;;;;;;42.80;26.10;;;;;;;;;;5071887;28;20361;-85
2021/06/28 06:29:25;;;;;;;49.50;27.77;;;;;;;;;;5071985;28;20021;-84
2021/06/28 06:31:51;;;;;;;45.78;24.60;;;;;;;;;;5069717;28;20031;-84
2021/06/28 06:34:16;;;;;;;42.50;23.48;;;;;;;;;;5071816;28;20013;-84
2021/06/28 06:36:41;;;;;;;47.40;26.80;;;;;;;;;;5071559;28;20020;-85
2021/06/28 06:39:06;;;;;;;51.65;27.95;;;;;;;;;;5071862;28;20054;-84
2021/06/28 06:41:32;;;;;;;56.45;29.63;;;;;;;;;;5071528;28;20499;-83
2021/06/28 06:43:57;;;;;;;55.92;29.75;;;;;;;;;;5063649;28;20070;-84
2021/06/28 06:46:22;;;;;;;52.03;29.10;;;;;;;;;;5068291;28;20107;-84
2021/06/28 06:48:48;;;;;;;55.72;29.65;;;;;;;;;;5071635;28;20020;-84
2021/06/28 06:51:13;;;;;;;57.03;31.70;;;;;;;;;;5071465;28;20016;-84
2021/06/28 06:53:38;;;;;;;58.55;31.75;;;;;;;;;;5071685;28;20434;-84
2021/06/28 06:56:05;;;;;;;58.35;32.08;;;;;;;;;;5071777;28;20360;-84
2021/06/28 06:58:31;;;;;;;64.88;31.20;;;;;;;;;;5071411;28;20033;-84
2021/06/28 07:00:56;;;;;;;66.18;32.88;;;;;;;;;;5071488;28;20063;-84
2021/06/28 07:03:22;;;;;;;76.63;34.50;;;;;;;;;;5072713;28;20012;-83
2021/06/28 07:05:47;;;;;;;75.35;34.72;;;;;;;;;;5071572;28;20008;-84
2021/06/28 07:08:15;;;;;;;81.15;34.97;;;;;;;;;;5071181;28;20157;-83
2021/06/28 07:10:40;;;;;;;79.72;33.92;;;;;;;;;;5071436;28;20024;-84
2021/06/28 07:13:05;;;;;;;84.38;34.55;;;;;;;;;;5070108;28;20472;-84
2021/06/28 07:15:31;;;;;;;98.18;37.10;;;;;;;;;;5068136;28;20016;-84
2021/06/28 07:17:56;;;;;;;97.13;39.13;;;;;;;;;;5069384;28;20032;-84
2021/06/28 07:20:22;;;;;;;99.25;37.53;;;;;;;;;;5064124;28;20494;-83
2021/06/28 07:22:47;;;;;;;103.00;40.90;;;;;;;;;;5059790;28;20033;-84
2021/06/28 07:25:14;;;;;;;111.95;42.92;;;;;;;;;;5069177;28;20115;-84
2021/06/28 07:27:40;;;;;;;120.97;43.85;;;;;;;;;;5064091;28;20115;-84
2021/06/28 07:30:06;;;;;;;124.63;44.42;;;;;;;;;;5062325;28;21075;-84
2021/06/28 07:32:31;;;;;;;119.43;44.88;;;;;;;;;;5073122;28;20025;-83
2021/06/28 07:34:56;;;;;;;115.10;44.67;;;;;;;;;;5073585;28;20107;-84
2021/06/28 07:37:22;;;;;;;115.03;44.70;;;;;;;;;;5073833;28;20029;-84
2021/06/28 07:39:48;;;;;;;106.43;43.13;;;;;;;;;;5066160;28;20020;-83
2021/06/28 07:42:13;;;;;;;90.50;39.83;;;;;;;;;;5075200;28;20074;-84
2021/06/28 07:44:38;;;;;;;85.20;40.13;;;;;;;;;;5075012;28;20372;-84
2021/06/28 07:47:04;;;;;;;77.97;36.95;;;;;;;;;;5073913;28;20024;-84
2021/06/28 07:49:29;;;;;;;81.90;39.38;;;;;;;;;;5069313;28;20031;-84
2021/06/28 07:51:55;;;;;;;77.93;37.17;;;;;;;;;;5074993;28;20012;-83
2021/06/28 07:54:22;;;;;;;68.90;35.90;;;;;;;;;;5076570;28;20025;-84
2021/06/28 07:56:47;;;;;;;61.42;31.85;;;;;;;;;;5074555;28;20539;-83
2021/06/28 07:59:13;;;;;;;68.38;32.90;;;;;;;;;;5074938;28;20100;-84
2021/06/28 08:01:38;;;;;;;59.47;30.38;;;;;;;;;;5059237;28;20057;-84
2021/06/28 08:04:03;;;;;;;55.83;27.65;;;;;;;;;;5074786;28;20048;-84
2021/06/28 08:06:28;;;;;;;79.35;35.65;;;;;;;;;;5074789;28;20032;-84
2021/06/28 08:08:54;;;;;;;81.75;38.97;;;;;;;;;;5074883;28;20023;-84
2021/06/28 08:11:20;;;;;;;59.42;32.20;;;;;;;;;;5063706;28;20021;-84
2021/06/28 08:13:47;;;;;;;43.80;26.40;;;;;;;;;;5072825;28;20103;-84
2021/06/28 08:16:13;;;;;;;55.65;30.63;;;;;;;;;;5074599;28;20391;-84
2021/06/28 08:18:38;;;;;;;61.75;32.65;;;;;;;;;;5061840;28;20115;-84
2021/06/28 08:21:04;;;;;;;62.55;32.67;;;;;;;;;;5074327;28;20095;-84
2021/06/28 08:23:30;;;;;;;70.53;33.75;;;;;;;;;;5075504;28;20032;-84
2021/06/28 08:25:55;;;;;;;56.03;30.70;;;;;;;;;;5074339;28;20016;-84
2021/06/28 08:28:20;;;;;;;61.50;32.10;;;;;;;;;;5075762;28;20111;-85
2021/06/28 08:30:45;;;;;;;57.53;30.30;;;;;;;;;;5075590;28;20013;-85
2021/06/28 08:33:11;;;;;;;55.55;28.90;;;;;;;;;;5073513;28;20032;-85
2021/06/28 08:35:36;;;;;;;69.60;36.85;;;;;;;;;;5073958;28;20020;-84
2021/06/28 08:38:03;;;;;;;58.67;31.65;;;;;;;;;;5073993;28;20024;-84
2021/06/28 08:40:28;;;;;;;66.88;32.42;;;;;;;;;;5074148;28;20021;-84
2021/06/28 08:42:53;;;;;;;100.43;40.58;;;;;;;;;;5072807;28;20028;-84
2021/06/28 08:45:19;;;;;;;125.45;45.55;;;;;;;;;;5061490;28;20571;-84
2021/06/28 08:47:44;;;;;;;134.48;46.90;;;;;;;;;;5053899;28;20025;-84
2021/06/28 08:50:10;;;;;;;168.43;50.58;;;;;;;;;;5055123;28;20024;-84
2021/06/28 08:52:40;;;;;;;193.90;58.80;;;;;;;;;;5058704;28;20362;-84
2021/06/28 08:55:06;;;;;;;203.95;59.80;;;;;;;;;;5055179;28;20025;-84
2021/06/28 08:57:31;;;;;;;226.05;64.65;;;;;;;;;;5052118;28;20029;-84
2021/06/28 08:59:56;;;;;;;212.23;62.42;;;;;;;;;;5053662;28;20051;-84
2021/06/28 09:02:22;;;;;;;186.90;59.72;;;;;;;;;;5061201;28;20033;-84
2021/06/28 09:04:57;;;;;;;166.07;58.90;;;;;;;;;;5058209;28;20028;-83
2021/06/28 09:07:22;;;;;;;136.15;52.78;;;;;;;;;;5054391;28;20527;-85
2021/06/28 09:09:47;;;;;;;121.70;50.78;;;;;;;;;;5052390;28;20009;-84
2021/06/28 09:12:14;;;;;;;99.10;46.85;;;;;;;;;;5060952;28;20083;-84
2021/06/28 09:14:45;;;;;;;73.32;38.97;;;;;;;;;;5054157;28;20511;-84
2021/06/28 09:17:22;;;;;;;85.03;41.17;;;;;;;;;;5072028;28;20111;-84
2021/06/28 09:20:07;;;;;;;88.90;40.65;;;;;;;;;;5065190;28;20040;-84
2021/06/28 09:22:32;;;;;;;89.43;40.13;;;;;;;;;;5056088;28;20025;-84
2021/06/28 09:24:58;;;;;;;81.55;39.40;;;;;;;;;;5065277;28;20384;-84
2021/06/28 09:27:25;;;;;;;83.20;40.15;;;;;;;;;;5072999;28;20024;-85
2021/06/28 09:29:58;;;;;;;79.95;38.67;;;;;;;;;;5071002;28;20476;-84
2021/06/28 09:32:24;;;;;;;67.50;35.05;;;;;;;;;;5072950;28;20032;-84
2021/06/28 09:34:51;;;;;;;61.95;34.03;;;;;;;;;;5072997;28;20027;-84
2021/06/28 09:37:21;;;;;;;57.35;30.55;;;;;;;;;;5072902;28;20031;-84
2021/06/28 09:39:47;;;;;;;49.33;29.52;;;;;;;;;;5062780;28;20464;-84
2021/06/28 09:42:14;;;;;;;43.63;28.65;;;;;;;;;;5054000;28;20029;-84
2021/06/28 09:45:01;;;;;;;61.20;30.83;;;;;;;;;;5069240;28;20040;-84
2021/06/28 09:47:27;;;;;;;46.05;29.08;;;;;;;;;;5062520;28;20021;-84
2021/06/28 09:50:11;;;;;;;47.55;28.80;;;;;;;;;;5055010;28;20725;-84
2021/06/28 09:52:39;;;;;;;52.95;29.85;;;;;;;;;;5052823;28;20686;-84
2021/06/28 09:55:23;;;;;;;52.67;32.53;;;;;;;;;;5055823;28;20056;-84
2021/06/28 09:58:03;;;;;;;64.88;35.13;;;;;;;;;;5066773;28;20032;-84
2021/06/28 10:00:28;;;;;;;76.07;38.95;;;;;;;;;;5050434;28;20120;-84
2021/06/28 10:02:53;;;;;;;108.03;47.00;;;;;;;;;;5053824;28;20115;-84
2021/06/28 10:05:22;;;;;;;109.43;47.13;;;;;;;;;;5047878;28;20048;-84
2021/06/28 10:07:48;;;;;;;108.72;47.88;;;;;;;;;;5055146;28;20103;-84
2021/06/28 10:10:16;;;;;;;84.97;43.40;;;;;;;;;;5050659;28;20520;-84
2021/06/28 10:12:46;;;;;;;70.68;38.40;;;;;;;;;;5050851;28;20112;-84
2021/06/28 10:15:13;;;;;;;50.17;29.52;;;;;;;;;;5050264;28;20384;-84
2021/06/28 10:17:39;;;;;;;34.70;20.52;;;;;;;;;;5078957;28;20028;-83
2021/06/28 10:20:06;;;;;;;28.85;19.13;;;;;;;;;;5050838;28;20036;-84
2021/06/28 10:22:31;;;;;;;28.70;18.30;;;;;;;;;;5078558;28;20025;-84
2021/06/28 10:24:56;;;;;;;33.47;19.05;;;;;;;;;;5052219;28;20391;-84
2021/06/28 10:27:21;;;;;;;34.90;20.98;;;;;;;;;;5052016;28;20484;-83
2021/06/28 10:29:47;;;;;;;44.53;24.13;;;;;;;;;;5051406;28;20017;-84
2021/06/28 10:32:12;;;;;;;60.17;28.73;;;;;;;;;;5050531;28;20017;-83
2021/06/28 10:34:38;;;;;;;53.47;26.02;;;;;;;;;;5082978;28;20017;-83
2021/06/28 10:37:23;;;;;;;39.75;21.30;;;;;;;;;;5051575;28;20032;-84
2021/06/28 10:39:58;;;;;;;32.40;18.67;;;;;;;;;;5066793;28;20055;-84
2021/06/28 10:42:32;;;;;;;27.42;16.75;;;;;;;;;;5073247;28;20494;-84
2021/06/28 10:44:57;;;;;;;47.17;23.80;;;;;;;;;;5060224;28;20025;-84
2021/06/28 10:47:22;;;;;;;81.43;32.47;;;;;;;;;;5065261;28;20031;-84
2021/06/28 10:49:52;;;;;;;101.57;36.08;;;;;;;;;;5071958;28;20024;-84
2021/06/28 10:52:35;;;;;;;104.72;39.72;;;;;;;;;;5053016;28;20013;-84
2021/06/28 10:55:21;;;;;;;111.07;40.63;;;;;;;;;;5058836;28;20047;-84
2021/06/28 10:57:47;;;;;;;93.40;39.83;;;;;;;;;;5056775;28;20028;-84
2021/06/28 11:00:13;;;;;;;86.03;38.92;;;;;;;;;;5070480;28;20021;-84
2021/06/28 11:02:40;;;;;;;59.35;30.38;;;;;;;;;;5053273;28;20036;-84
2021/06/28 11:05:09;;;;;;;51.38;27.48;;;;;;;;;;5051869;28;20081;-84
2021/06/28 11:07:45;;;;;;;55.85;28.85;;;;;;;;;;5064570;28;20028;-84
2021/06/28 11:10:14;;;;;;;69.97;31.98;;;;;;;;;;5062296;28;20476;-84
2021/06/28 11:12:40;;;;;;;54.90;26.83;;;;;;;;;;5066520;28;20120;-84
2021/06/28 11:15:08;;;;;;;32.47;18.50;;;;;;;;;;5053149;28;20112;-84
2021/06/28 11:17:41;;;;;;;69.95;29.85;;;;;;;;;;5050295;28;20025;-84
2021/06/28 11:20:16;;;;;;;88.43;39.08;;;;;;;;;;5056607;28;20496;-83
2021/06/28 11:22:50;;;;;;;90.30;38.33;;;;;;;;;;5057431;28;20036;-84
2021/06/28 11:25:17;;;;;;;138.27;46.80;;;;;;;;;;5054507;28;20033;-84
2021/06/28 11:27:42;;;;;;;125.00;46.10;;;;;;;;;;5065084;28;20021;-84
2021/06/28 11:30:11;;;;;;;167.85;56.13;;;;;;;;;;5051027;28;20380;-84
2021/06/28 11:32:39;;;;;;;186.70;55.47;;;;;;;;;;5049096;28;20025;-84
2021/06/28 11:35:05;;;;;;;192.55;53.47;;;;;;;;;;5058501;28;20825;-83
2021/06/28 11:37:32;;;;;;;157.73;50.33;;;;;;;;;;5053199;28;20081;-84
2021/06/28 11:39:59;;;;;;;36.80;19.73;;;;;;;;;;5053224;28;20028;-83
2021/06/28 11:42:32;;;;;;;14.45;7.13;;;;;;;;;;5049746;28;20435;-84
2021/06/28 11:45:00;;;;;;;14.27;10.05;;;;;;;;;;5038774;28;20051;-85
2021/06/28 11:47:43;;;;;;;19.58;11.38;;;;;;;;;;5050819;28;20362;-84
2021/06/28 11:50:24;;;;;;;14.40;9.20;;;;;;;;;;5050066;28;20029;-84
2021/06/28 11:53:09;;;;;;;16.15;11.95;;;;;;;;;;5081715;28;20025;-83
2021/06/28 11:55:37;;;;;;;20.23;11.88;;;;;;;;;;5049908;28;20476;-83
2021/06/28 11:58:03;;;;;;;23.45;14.30;;;;;;;;;;5049409;28;20421;-83
2021/06/28 12:00:29;;;;;;;10.13;6.07;;;;;;;;;;5082663;28;20029;-83
2021/06/28 12:03:10;;;;;;;17.73;11.40;;;;;;;;;;5054358;28;20013;-83
2021/06/28 12:05:35;;;;;;;15.05;9.27;;;;;;;;;;5079726;28;20029;-83
2021/06/28 12:08:00;;;;;;;5.38;3.72;;;;;;;;;;5078562;28;20029;-82
2021/06/28 12:10:25;;;;;;;8.73;3.80;;;;;;;;;;5050278;28;20796;-82
2021/06/28 12:12:55;;;;;;;7.15;4.20;;;;;;;;;;5052573;28;20019;-83
2021/06/28 12:15:23;;;;;;;6.32;3.80;;;;;;;;;;5048601;28;20028;-82
2021/06/28 12:17:48;;;;;;;8.82;5.32;;;;;;;;;;5050724;28;20464;-82
2021/06/28 12:20:18;;;;;;;5.10;3.95;;;;;;;;;;5054586;28;20108;-82
2021/06/28 12:22:44;;;;;;;7.68;4.38;;;;;;;;;;5050325;28;20380;-82
2021/06/28 12:25:13;;;;;;;8.98;4.43;;;;;;;;;;5053281;28;20108;-82
2021/06/28 12:27:39;;;;;;;6.20;4.72;;;;;;;;;;5053443;28;20025;-82
2021/06/28 12:30:06;;;;;;;7.57;5.35;;;;;;;;;;5053549;28;20027;-81
2021/06/28 12:32:32;;;;;;;8.27;5.95;;;;;;;;;;5055223;28;20013;-82
2021/06/28 12:34:58;;;;;;;9.07;6.32;;;;;;;;;;5056033;28;20474;-82
2021/06/28 12:37:34;;;;;;;10.05;7.15;;;;;;;;;;5054031;28;20020;-82
2021/06/28 12:40:15;;;;;;;10.05;5.38;;;;;;;;;;5053755;28;20365;-82
2021/06/28 12:42:41;;;;;;;8.07;5.10;;;;;;;;;;5053538;28;20024;-82
2021/06/28 12:45:07;;;;;;;8.05;5.78;;;;;;;;;;5053261;28;20025;-82
2021/06/28 12:47:32;;;;;;;10.98;6.10;;;;;;;;;;5053003;28;20380;-82
2021/06/28 12:49:58;;;;;;;7.50;5.88;;;;;;;;;;5050138;28;20028;-83
2021/06/28 12:52:36;;;;;;;6.93;4.80;;;;;;;;;;5052649;28;20021;-82
2021/06/28 12:55:09;;;;;;;9.05;5.60;;;;;;;;;;5047291;28;20016;-82
2021/06/28 12:57:35;;;;;;;6.13;5.22;;;;;;;;;;5053682;28;20078;-82
2021/06/28 13:00:01;;;;;;;9.40;5.78;;;;;;;;;;5049776;28;20108;-83
2021/06/28 13:02:28;;;;;;;11.77;6.18;;;;;;;;;;5051364;28;20162;-83
2021/06/28 13:05:09;;;;;;;14.95;5.65;;;;;;;;;;5055440;28;20021;-83
2021/06/28 13:07:35;;;;;;;8.65;5.80;;;;;;;;;;5073824;28;20017;-83
2021/06/28 13:10:01;;;;;;;8.20;5.90;;;;;;;;;;5060232;28;20376;-82
2021/06/28 13:12:27;;;;;;;10.00;6.18;;;;;;;;;;5053284;28;20024;-82
2021/06/28 13:15:15;;;;;;;10.15;6.60;;;;;;;;;;5052177;28;20438;-83
2021/06/28 13:17:40;;;;;;;10.57;6.50;;;;;;;;;;5051146;28;20483;-82
2021/06/28 13:20:19;;;;;;;13.10;8.13;;;;;;;;;;5053339;28;20024;-83
2021/06/28 13:22:44;;;;;;;11.23;7.35;;;;;;;;;;5053281;28;20033;-83
2021/06/28 13:25:15;;;;;;;9.70;6.72;;;;;;;;;;5053345;28;20472;-82
2021/06/28 13:27:40;;;;;;;9.77;6.55;;;;;;;;;;5080240;28;20059;-82
2021/06/28 13:30:15;;;;;;;10.35;6.53;;;;;;;;;;5052093;28;20028;-83
2021/06/28 13:32:40;;;;;;;10.52;7.15;;;;;;;;;;5049946;28;20098;-83
2021/06/28 13:35:06;;;;;;;15.00;8.32;;;;;;;;;;5053999;28;20464;-83
2021/06/28 13:37:32;;;;;;;12.13;7.63;;;;;;;;;;5067181;28;20044;-82
2021/06/28 13:39:58;;;;;;;9.77;6.75;;;;;;;;;;5068663;28;20024;-82
2021/06/28 13:42:27;;;;;;;8.10;6.10;;;;;;;;;;5052681;28;20040;-82
2021/06/28 13:44:58;;;;;;;12.75;5.68;;;;;;;;;;5064286;28;20052;-82
2021/06/28 13:47:24;;;;;;;9.23;5.97;;;;;;;;;;5065624;28;20036;-82
2021/06/28 13:49:49;;;;;;;11.20;6.07;;;;;;;;;;5072642;28;20067;-83
2021/06/28 13:52:14;;;;;;;13.20;5.88;;;;;;;;;;5060608;28;20112;-83
2021/06/28 13:54:39;;;;;;;7.70;5.22;;;;;;;;;;5057650;28;20115;-82
2021/06/28 13:57:05;;;;;;;7.50;5.03;;;;;;;;;;5072489;28;20020;-83
2021/06/28 13:59:30;;;;;;;9.45;6.05;;;;;;;;;;5064748;28;20032;-83
2021/06/28 14:01:55;;;;;;;11.75;7.15;;;;;;;;;;5069863;28;20108;-82
2021/06/28 14:04:21;;;;;;;9.02;7.00;;;;;;;;;;5062058;28;20025;-83
2021/06/28 14:06:46;;;;;;;15.70;5.85;;;;;;;;;;5062495;28;20013;-82
2021/06/28 14:09:11;;;;;;;7.63;5.78;;;;;;;;;;5054010;28;20013;-83
2021/06/28 14:11:36;;;;;;;7.90;6.20;;;;;;;;;;5066912;28;20379;-83
2021/06/28 14:14:02;;;;;;;11.13;5.97;;;;;;;;;;5063505;28;20016;-83
2021/06/28 14:16:27;;;;;;;15.73;5.57;;;;;;;;;;5072473;28;20025;-83
2021/06/28 14:18:52;;;;;;;9.93;5.47;;;;;;;;;;5063712;28;20017;-82
2021/06/28 14:21:17;;;;;;;10.27;5.72;;;;;;;;;;5071238;28;20020;-84